Time;durP1;ratioP1;P1;durP2;ratioP2;P2;SDS_P1;SDS_P2;PMS_P1;PMS_P2;Temp;Humidity;BMP_temperature;BMP_pressure;BME280_temperature;BME280_humidity;BME280_pressure;Samples;Min_cycle;Max_cycle;Signal;HPM_P1;HPM_P2
2022/04/22 00:00:06;;;;;;;3.08;2.17;;;;;;;18.91;50.90;99779.44;5053704;28;20045;-74
2022/04/22 00:02:34;;;;;;;2.95;1.98;;;;;;;18.91;50.70;99778.59;5054037;28;20057;-73
2022/04/22 00:05:02;;;;;;;3.28;2.13;;;;;;;18.92;50.79;99777.59;5053909;28;20097;-74
2022/04/22 00:07:30;;;;;;;4.43;2.15;;;;;;;18.91;50.81;99765.19;5053994;28;20052;-73
2022/04/22 00:09:57;;;;;;;3.47;2.10;;;;;;;18.91;50.80;99762.50;5053379;28;20052;-74
2022/04/22 00:12:25;;;;;;;2.75;1.85;;;;;;;18.90;50.66;99763.50;5053937;28;20041;-74
2022/04/22 00:14:52;;;;;;;3.03;2.10;;;;;;;18.90;50.83;99753.59;5053855;28;20063;-74
2022/04/22 00:17:19;;;;;;;2.70;2.17;;;;;;;18.91;50.79;99749.09;5053793;28;20056;-74
2022/04/22 00:19:47;;;;;;;2.42;1.95;;;;;;;18.89;50.79;99741.22;5053968;28;20037;-74
2022/04/22 00:22:14;;;;;;;3.40;2.30;;;;;;;18.90;50.88;99745.56;5053710;28;20053;-74
2022/04/22 00:24:42;;;;;;;3.97;2.38;;;;;;;18.91;50.74;99746.41;5053684;28;20056;-74
2022/04/22 00:27:09;;;;;;;2.85;2.25;;;;;;;18.89;50.93;99737.69;5053381;28;20412;-74
2022/04/22 00:29:36;;;;;;;3.92;2.00;;;;;;;18.90;50.85;99723.28;5052331;28;20053;-75
2022/04/22 00:32:04;;;;;;;2.83;2.08;;;;;;;18.90;50.84;99715.22;5052479;28;20503;-74
2022/04/22 00:34:32;;;;;;;2.30;1.83;;;;;;;18.89;50.77;99721.59;5052522;28;20041;-74
2022/04/22 00:36:59;;;;;;;3.35;2.15;;;;;;;18.89;50.87;99710.88;5052321;28;20060;-74
2022/04/22 00:39:26;;;;;;;2.75;2.38;;;;;;;18.89;50.74;99710.88;5053661;28;20045;-74
2022/04/22 00:41:54;;;;;;;2.60;2.28;;;;;;;18.88;50.75;99704.66;5053557;28;20400;-74
2022/04/22 00:44:21;;;;;;;3.15;2.22;;;;;;;18.89;50.82;99694.78;5053106;28;20052;-74
2022/04/22 00:46:49;;;;;;;2.90;2.30;;;;;;;18.89;50.89;99690.25;5053113;28;20045;-74
2022/04/22 00:49:16;;;;;;;3.00;2.10;;;;;;;18.88;50.90;99693.94;5053339;28;20520;-74
2022/04/22 00:51:44;;;;;;;2.63;1.95;;;;;;;18.88;50.67;99690.38;5052865;28;20408;-74
2022/04/22 00:54:13;;;;;;;3.05;1.80;;;;;;;18.89;50.70;99676.00;5053302;28;20060;-73
2022/04/22 00:56:40;;;;;;;3.33;2.20;;;;;;;18.88;50.90;99680.53;5052439;28;20041;-74
2022/04/22 00:59:09;;;;;;;2.50;2.20;;;;;;;18.88;50.89;99667.13;5053403;28;20041;-74
2022/04/22 01:01:38;;;;;;;2.85;1.90;;;;;;;18.88;50.86;99652.84;5052633;28;20061;-74
2022/04/22 01:09:51;;;;;;;2.30;1.67;;;;;;;18.87;50.65;99640.44;5055490;28;20076;-74
2022/04/22 01:12:19;;;;;;;2.85;1.77;;;;;;;18.87;50.88;99638.59;5057044;28;20049;-74
2022/04/22 01:14:46;;;;;;;2.60;1.88;;;;;;;18.87;50.69;99637.78;5057016;28;20041;-74
2022/04/22 01:17:14;;;;;;;3.22;2.13;;;;;;;18.88;50.66;99631.41;5056418;28;20049;-74
2022/04/22 01:19:41;;;;;;;2.30;1.77;;;;;;;18.86;50.61;99630.72;5055186;28;20508;-74
2022/04/22 01:22:09;;;;;;;3.17;2.20;;;;;;;18.86;50.90;99626.19;5056724;28;20542;-74
2022/04/22 01:24:37;;;;;;;2.92;1.90;;;;;;;18.86;50.79;99622.69;5057146;28;20405;-73
2022/04/22 01:27:07;;;;;;;3.47;2.47;;;;;;;18.87;50.73;99625.19;5056830;28;20055;-74
2022/04/22 01:29:34;;;;;;;3.08;1.95;;;;;;;18.86;50.81;99633.41;5056829;28;20048;-74
2022/04/22 01:32:02;;;;;;;2.47;1.90;;;;;;;18.86;50.73;99622.69;5056869;28;20045;-74
2022/04/22 01:34:29;;;;;;;2.72;1.80;;;;;;;18.86;50.88;99628.03;5056316;28;20049;-74
2022/04/22 01:36:56;;;;;;;2.90;2.20;;;;;;;18.85;51.02;99624.53;5056498;28;20142;-73
2022/04/22 01:39:24;;;;;;;4.03;2.13;;;;;;;18.86;50.74;99611.97;5055846;28;20504;-74
2022/04/22 01:41:52;;;;;;;2.58;1.73;;;;;;;18.86;50.89;99620.00;5056084;28;20040;-74
2022/04/22 01:44:20;;;;;;;2.90;1.92;;;;;;;18.86;50.79;99620.00;5055934;28;20523;-74
2022/04/22 01:46:47;;;;;;;2.90;2.00;;;;;;;18.86;50.91;99610.13;5056016;28;20088;-74
2022/04/22 01:49:14;;;;;;;2.85;1.85;;;;;;;18.86;50.84;99611.97;5055148;28;20045;-74
2022/04/22 01:51:42;;;;;;;2.75;2.03;;;;;;;18.84;50.90;99609.44;5056280;28;20078;-74
2022/04/22 01:54:10;;;;;;;3.17;1.92;;;;;;;18.86;50.95;99612.78;5056066;28;20065;-74
2022/04/22 01:56:37;;;;;;;2.67;1.83;;;;;;;18.85;51.06;99597.72;5055563;28;20052;-74
2022/04/22 01:59:05;;;;;;;2.80;1.88;;;;;;;18.86;50.97;99598.56;5054292;28;20388;-74
2022/04/22 02:01:32;;;;;;;2.42;1.70;;;;;;;18.85;51.09;99591.50;5055860;28;20037;-74
2022/04/22 02:03:59;;;;;;;2.13;1.65;;;;;;;18.86;50.91;99593.19;5056426;28;20068;-74
2022/04/22 02:06:28;;;;;;;2.25;1.73;;;;;;;18.85;51.00;99597.72;5056170;28;20049;-75
2022/04/22 02:08:55;;;;;;;2.65;1.88;;;;;;;18.86;51.01;99591.34;5056086;28;20056;-74
2022/04/22 02:11:23;;;;;;;1.95;1.35;;;;;;;18.85;50.98;99596.88;5055931;28;20033;-75
2022/04/22 02:13:50;;;;;;;4.40;2.15;;;;;;;18.85;51.05;99591.50;5055509;28;20037;-74
2022/04/22 02:16:17;;;;;;;2.20;1.52;;;;;;;18.84;50.91;99588.00;5052584;28;20049;-74
2022/04/22 02:18:45;;;;;;;2.38;1.85;;;;;;;18.86;51.01;99590.50;5056083;28;20045;-74
2022/04/22 02:21:12;;;;;;;2.28;1.88;;;;;;;18.85;50.84;99580.78;5055718;28;20430;-74
2022/04/22 02:23:40;;;;;;;2.85;1.80;;;;;;;18.84;51.08;99573.72;5056207;28;20037;-74
2022/04/22 02:26:08;;;;;;;2.35;1.70;;;;;;;18.84;50.95;99577.28;5056042;28;20049;-74
2022/04/22 02:28:35;;;;;;;2.45;1.92;;;;;;;18.83;50.98;99577.41;5053636;28;20056;-74
2022/04/22 02:31:06;;;;;;;2.78;1.88;;;;;;;18.84;50.98;99571.03;5037922;28;20052;-74
2022/04/22 02:33:35;;;;;;;5.38;1.80;;;;;;;18.83;50.95;99570.19;5057213;28;20049;-74
2022/04/22 02:36:04;;;;;;;2.42;1.80;;;;;;;18.84;50.98;99569.22;5055839;28;20060;-74
2022/04/22 02:38:32;;;;;;;3.00;1.85;;;;;;;18.84;50.93;99571.03;5055866;28;20049;-74
2022/04/22 02:46:33;;;;;;;2.85;2.13;;;;;;;18.83;51.08;99558.63;5055252;28;20045;-78
2022/04/22 02:49:00;;;;;;;2.85;1.75;;;;;;;18.83;51.09;99555.97;5054873;28;20045;-74
2022/04/22 02:51:28;;;;;;;2.20;1.60;;;;;;;18.83;51.03;99558.63;5055560;28;20041;-74
2022/04/22 02:53:55;;;;;;;2.25;1.60;;;;;;;18.82;51.17;99549.75;5055241;28;20045;-74
2022/04/22 02:56:24;;;;;;;2.05;1.45;;;;;;;18.83;51.21;99546.06;5053838;28;20049;-74
2022/04/22 02:58:52;;;;;;;2.03;1.40;;;;;;;18.83;51.06;99546.06;5054711;28;20423;-74
2022/04/22 03:01:19;;;;;;;2.35;1.60;;;;;;;18.84;50.99;99541.53;5055447;28;20453;-74
2022/04/22 03:03:48;;;;;;;2.45;2.00;;;;;;;18.83;50.88;99545.22;5054029;28;20052;-75
2022/04/22 03:06:15;;;;;;;7.20;2.15;;;;;;;18.83;50.87;99540.72;5052639;28;20056;-75
2022/04/22 03:08:43;;;;;;;4.38;2.10;;;;;;;18.82;50.79;99539.03;5053754;28;20056;-75
2022/04/22 03:11:10;;;;;;;3.95;1.90;;;;;;;18.82;50.98;99535.50;5054363;28;20041;-74
2022/04/22 03:13:39;;;;;;;3.13;1.83;;;;;;;18.82;50.87;99530.16;5055074;28;20064;-74
2022/04/22 03:16:07;;;;;;;3.13;1.80;;;;;;;18.81;50.83;99528.47;5055591;28;20060;-74
2022/04/22 03:18:34;;;;;;;3.35;1.65;;;;;;;18.81;50.88;99537.38;5054773;28;20416;-74
2022/04/22 03:21:02;;;;;;;3.42;2.20;;;;;;;18.80;50.83;99524.97;5054800;28;20065;-74
2022/04/22 03:23:29;;;;;;;3.22;1.90;;;;;;;18.81;50.89;99521.28;5053870;28;20052;-74
2022/04/22 03:25:57;;;;;;;3.47;1.80;;;;;;;18.81;50.80;99523.13;5053402;28;20060;-74
2022/04/22 03:28:24;;;;;;;3.03;1.75;;;;;;;18.80;50.69;99514.25;5052769;28;20049;-74
2022/04/22 03:30:51;;;;;;;2.30;1.73;;;;;;;18.81;50.74;99515.06;5054886;28;20041;-74
2022/04/22 03:33:19;;;;;;;2.92;2.05;;;;;;;18.80;50.80;99513.38;5052954;28;20056;-74
2022/04/22 03:35:50;;;;;;;2.30;1.67;;;;;;;18.80;50.83;99522.28;5054351;28;20055;-74
2022/04/22 03:38:21;;;;;;;2.28;2.03;;;;;;;18.80;50.79;99519.59;5053229;28;20041;-74
2022/04/22 03:40:50;;;;;;;2.47;1.90;;;;;;;18.81;50.66;99523.13;5053810;28;20041;-74
2022/04/22 03:43:19;;;;;;;2.45;1.48;;;;;;;18.79;50.86;99504.50;5035913;28;20055;-73
2022/04/22 03:45:48;;;;;;;2.65;1.60;;;;;;;18.81;50.63;99509.72;5053002;28;20053;-73
2022/04/22 03:48:16;;;;;;;2.75;1.60;;;;;;;18.79;50.77;99504.50;5054595;28;20053;-74
2022/04/22 03:50:43;;;;;;;1.92;1.45;;;;;;;18.78;50.88;99510.88;5054015;28;20041;-74
2022/04/22 03:53:11;;;;;;;2.60;1.73;;;;;;;18.79;50.74;99512.53;5053787;28;20045;-74
2022/04/22 03:55:41;;;;;;;2.70;1.92;;;;;;;18.78;50.78;99503.66;5054060;28;20092;-74
2022/04/22 03:58:12;;;;;;;2.40;1.75;;;;;;;18.77;51.09;99504.66;5053903;28;20053;-74
2022/04/22 04:00:58;;;;;;;2.40;1.48;;;;;;;18.77;50.92;99499.31;5053655;28;20041;-74
2022/04/22 04:03:26;;;;;;;2.10;1.40;;;;;;;18.78;50.73;99500.13;5056094;28;20048;-75
2022/04/22 04:05:53;;;;;;;4.05;1.65;;;;;;;18.78;50.79;99500.97;5054625;28;20048;-74
2022/04/22 04:08:24;;;;;;;2.40;1.67;;;;;;;18.78;50.87;99505.50;5054548;28;20362;-75
2022/04/22 04:16:23;;;;;;;2.67;1.42;;;;;;;18.77;50.96;99493.94;5051381;28;20546;-77
2022/04/22 04:18:51;;;;;;;2.30;1.42;;;;;;;18.78;50.97;99495.59;5053928;28;20514;-75
2022/04/22 04:24:04;;;;;;;3.40;1.85;;;;;;;18.78;50.81;99490.25;5053484;28;20068;-74
2022/04/22 04:26:31;;;;;;;2.38;1.63;;;;;;;18.79;50.89;99491.09;5054051;28;20055;-74
2022/04/22 04:29:00;;;;;;;2.97;1.65;;;;;;;18.77;50.77;99493.94;5053945;28;20520;-74
2022/04/22 04:31:28;;;;;;;2.40;1.50;;;;;;;18.78;50.90;99492.09;5053810;28;20503;-74
2022/04/22 04:33:56;;;;;;;3.28;1.50;;;;;;;18.77;50.96;99488.56;5053554;28;20048;-74
2022/04/22 04:36:23;;;;;;;1.83;1.40;;;;;;;18.78;50.80;99489.41;5053970;28;20041;-74
2022/04/22 04:38:51;;;;;;;3.63;1.30;;;;;;;18.77;50.85;99488.56;5054944;28;20048;-74
2022/04/22 04:41:18;;;;;;;3.25;2.00;;;;;;;18.76;50.84;99484.22;5057785;28;20048;-74
2022/04/22 04:43:45;;;;;;;2.28;1.50;;;;;;;18.78;50.78;99484.06;5057513;28;20068;-74
2022/04/22 04:46:13;;;;;;;2.10;1.50;;;;;;;18.76;50.80;99489.59;5058473;28;20485;-74
2022/04/22 04:48:40;;;;;;;2.83;1.63;;;;;;;18.76;50.58;99486.91;5057088;28;20053;-73
2022/04/22 04:51:08;;;;;;;2.08;1.42;;;;;;;18.77;50.82;99485.06;5056064;28;20053;-74
2022/04/22 04:53:35;;;;;;;2.45;1.60;;;;;;;18.77;50.73;99490.41;5057419;28;20048;-74
2022/04/22 04:56:03;;;;;;;2.17;1.60;;;;;;;18.76;50.77;99492.28;5057857;28;20484;-74
2022/04/22 04:58:30;;;;;;;2.47;1.70;;;;;;;18.76;50.71;99486.91;5055938;28;20057;-74
2022/04/22 05:00:58;;;;;;;2.28;1.38;;;;;;;18.77;50.60;99493.09;5056503;28;20037;-72
2022/04/22 05:03:26;;;;;;;2.15;1.60;;;;;;;18.75;50.75;99485.19;5056610;28;20045;-74
2022/04/22 05:05:53;;;;;;;2.10;1.42;;;;;;;18.75;50.62;99482.53;5057010;28;20045;-74
2022/04/22 05:08:21;;;;;;;2.45;1.55;;;;;;;18.76;50.83;99488.75;5055635;28;20057;-74
2022/04/22 05:10:48;;;;;;;2.65;1.50;;;;;;;18.74;50.71;99480.84;5056899;28;20041;-74
2022/04/22 05:13:16;;;;;;;2.20;1.38;;;;;;;18.75;50.72;99490.56;5055920;28;20393;-74
2022/04/22 05:15:45;;;;;;;2.20;1.33;;;;;;;18.75;50.72;99485.19;5056920;28;20503;-74
2022/04/22 05:18:15;;;;;;;2.55;1.67;;;;;;;18.74;50.81;99486.22;5057129;28;20072;-74
2022/04/22 05:20:42;;;;;;;2.65;1.80;;;;;;;18.74;50.80;99480.84;5056997;28;20052;-74
2022/04/22 05:23:10;;;;;;;1.60;1.20;;;;;;;18.75;50.83;99484.38;5056355;28;20053;-74
2022/04/22 05:25:37;;;;;;;2.10;1.40;;;;;;;18.75;50.80;99490.56;5056990;28;20488;-74
2022/04/22 05:28:06;;;;;;;2.72;1.25;;;;;;;18.74;50.69;99483.53;5056758;28;20045;-74
2022/04/22 05:33:19;;;;;;;2.22;1.50;;;;;;;18.74;50.83;99480.84;5055554;28;20064;-74
2022/04/22 05:35:47;;;;;;;2.13;1.25;;;;;;;18.74;50.84;99480.00;5056862;28;20044;-75
2022/04/22 05:38:17;;;;;;;1.90;1.30;;;;;;;18.75;50.80;99476.31;5056031;28;20513;-75
2022/04/22 05:40:46;;;;;;;2.03;1.33;;;;;;;18.74;50.87;99469.28;5055477;28;20492;-75
2022/04/22 05:43:13;;;;;;;2.40;1.40;;;;;;;18.73;50.74;99476.50;5056471;28;20041;-75
2022/04/22 05:45:41;;;;;;;2.30;1.45;;;;;;;18.73;50.88;99471.13;5056217;28;20408;-75
2022/04/22 05:48:08;;;;;;;2.67;1.10;;;;;;;18.74;50.80;99478.16;5054908;28;20061;-75
2022/04/22 05:50:36;;;;;;;2.13;1.50;;;;;;;18.74;50.91;99464.75;5056193;28;20052;-74
2022/04/22 05:53:03;;;;;;;2.67;1.50;;;;;;;18.73;50.85;99460.41;5056717;28;20037;-74
2022/04/22 05:55:31;;;;;;;3.08;1.60;;;;;;;18.73;50.86;99463.09;5056329;28;20052;-74
2022/04/22 05:57:59;;;;;;;2.10;1.45;;;;;;;18.73;50.99;99465.78;5056784;28;20049;-74
2022/04/22 06:00:32;;;;;;;1.83;1.08;;;;;;;18.72;50.87;99456.06;5056294;28;20040;-74
2022/04/22 06:03:00;;;;;;;2.07;1.30;;;;;;;18.73;50.93;99465.78;5055123;28;20041;-74
2022/04/22 06:05:27;;;;;;;2.25;1.52;;;;;;;18.73;50.84;99463.09;5053972;28;20741;-74
2022/04/22 06:10:41;;;;;;;2.30;1.30;;;;;;;18.73;50.92;99459.56;5054980;28;20053;-74
2022/04/22 06:13:09;;;;;;;2.65;1.45;;;;;;;18.73;51.00;99464.94;5054048;28;20503;-74
2022/04/22 06:15:36;;;;;;;2.10;1.40;;;;;;;18.72;50.99;99457.91;5053495;28;20049;-74
2022/04/22 06:18:04;;;;;;;2.28;1.42;;;;;;;18.72;50.96;99460.59;5054836;28;20041;-74
2022/04/22 06:20:32;;;;;;;2.10;1.30;;;;;;;18.71;50.92;99457.03;5055544;28;20049;-74
2022/04/22 06:23:00;;;;;;;1.92;1.20;;;;;;;18.71;50.94;99449.00;5054406;28;20115;-74
2022/04/22 06:25:28;;;;;;;2.10;1.20;;;;;;;18.71;51.02;99451.66;5053593;28;20053;-74
2022/04/22 06:27:56;;;;;;;1.92;1.20;;;;;;;18.72;50.95;99455.22;5055192;28;20404;-74
2022/04/22 06:30:24;;;;;;;2.67;1.55;;;;;;;18.72;51.11;99449.84;5054423;28;20140;-74
2022/04/22 06:32:53;;;;;;;1.90;1.30;;;;;;;18.71;50.88;99451.66;5054864;28;20072;-74
2022/04/22 06:35:21;;;;;;;1.95;1.20;;;;;;;18.70;50.99;99444.63;5053030;28;20055;-74
2022/04/22 06:37:51;;;;;;;2.13;1.50;;;;;;;18.71;50.89;99448.16;5054891;28;20044;-74
2022/04/22 06:45:53;;;;;;;2.92;1.27;;;;;;;18.70;51.10;99441.97;5054632;28;20049;-74
2022/04/22 06:48:30;;;;;;;2.15;1.20;;;;;;;18.70;51.04;99439.28;5054610;28;20075;-74
2022/04/22 06:51:17;;;;;;;2.20;1.20;;;;;;;18.70;51.03;99439.28;5053855;28;20127;-74
2022/04/22 06:53:46;;;;;;;3.03;1.30;;;;;;;18.70;51.10;99446.47;5054672;28;20048;-74
2022/04/22 06:56:13;;;;;;;3.45;1.58;;;;;;;18.70;51.02;99449.16;5054100;28;20049;-74
2022/04/22 06:58:42;;;;;;;3.42;1.70;;;;;;;18.70;51.03;99446.47;5054102;28;20045;-74
2022/04/22 07:01:10;;;;;;;6.90;2.40;;;;;;;18.71;51.27;99440.94;5053045;28;20404;-74
2022/04/22 07:03:58;;;;;;;4.82;1.75;;;;;;;18.72;51.05;99441.81;5053798;28;20056;-73
2022/04/22 07:06:25;;;;;;;3.97;1.40;;;;;;;18.72;51.31;99439.97;5054312;28;20049;-74
2022/04/22 07:08:54;;;;;;;4.72;1.80;;;;;;;18.70;51.21;99433.09;5054365;28;20056;-73
2022/04/22 07:11:27;;;;;;;2.72;1.52;;;;;;;18.70;51.28;99441.97;5054100;28;20044;-73
2022/04/22 07:13:57;;;;;;;2.50;1.58;;;;;;;18.70;51.14;99439.28;5053974;28;20381;-72
2022/04/22 07:16:25;;;;;;;2.40;1.98;;;;;;;18.72;51.24;99441.81;5054086;28;20037;-73
2022/04/22 07:18:53;;;;;;;2.95;2.40;;;;;;;18.73;51.17;99444.31;5054253;28;20044;-73
2022/04/22 07:21:24;;;;;;;2.85;1.70;;;;;;;18.73;51.54;99438.97;5053910;28;20473;-72
2022/04/22 07:23:53;;;;;;;2.80;1.90;;;;;;;18.74;51.24;99446.00;5054242;28;20060;-74
2022/04/22 07:26:21;;;;;;;4.03;2.25;;;;;;;18.74;51.25;99447.84;5053864;28;20041;-75
2022/04/22 07:28:50;;;;;;;3.95;3.17;;;;;;;18.75;51.23;99460.25;5052814;28;20045;-75
2022/04/22 07:31:21;;;;;;;4.90;3.47;;;;;;;18.74;51.19;99451.34;5053847;28;20519;-74
2022/04/22 07:33:53;;;;;;;4.43;2.55;;;;;;;18.75;51.28;99455.72;5053895;28;20045;-75
2022/04/22 07:36:21;;;;;;;5.78;4.38;;;;;;;18.74;51.39;99453.19;5053036;28;20053;-75
2022/04/22 07:38:51;;;;;;;4.15;3.75;;;;;;;18.74;51.30;99461.25;5054136;28;20049;-75
2022/04/22 07:41:25;;;;;;;4.40;3.95;;;;;;;18.74;51.16;99461.25;5054319;28;20045;-76
2022/04/22 07:46:47;;;;;;;4.63;4.15;;;;;;;18.70;51.18;99455.38;5053857;28;20041;-75
2022/04/22 07:49:15;;;;;;;5.55;4.72;;;;;;;18.71;51.27;99464.25;5053878;28;20045;-76
2022/04/22 07:51:43;;;;;;;4.97;4.47;;;;;;;18.71;51.33;99470.44;5053826;28;20045;-77
2022/04/22 07:54:14;;;;;;;3.63;3.28;;;;;;;18.70;51.51;99459.88;5053172;28;20045;-75
2022/04/22 07:56:42;;;;;;;5.35;3.78;;;;;;;18.72;51.45;99458.75;5053778;28;20053;-74
2022/04/22 07:59:11;;;;;;;6.72;4.43;;;;;;;18.73;51.31;99468.44;5053406;28;20049;-74
2022/04/22 08:01:38;;;;;;;5.50;4.88;;;;;;;18.71;51.07;99470.44;5053722;28;20052;-72
2022/04/22 08:04:09;;;;;;;4.38;3.97;;;;;;;18.71;51.06;99473.13;5040171;28;20049;-73
2022/04/22 08:06:37;;;;;;;5.22;4.50;;;;;;;18.70;51.14;99470.59;5033496;28;20404;-77
2022/04/22 08:09:05;;;;;;;5.90;4.80;;;;;;;18.70;51.26;99473.28;5033816;28;20049;-78
2022/04/22 08:11:34;;;;;;;6.07;4.15;;;;;;;18.69;51.21;99461.69;5032260;28;20076;-77
2022/04/22 08:14:01;;;;;;;6.15;4.10;;;;;;;18.68;51.29;99478.78;5032572;28;20041;-77
2022/04/22 08:16:29;;;;;;;4.20;3.67;;;;;;;18.69;51.34;99474.28;5033118;28;20055;-74
2022/04/22 08:18:56;;;;;;;9.02;3.58;;;;;;;18.69;51.24;99474.28;5015681;28;20053;-75
2022/04/22 08:21:33;;;;;;;5.78;3.92;;;;;;;18.69;51.58;99475.09;5033067;28;20045;-74
2022/04/22 08:24:02;;;;;;;4.65;4.15;;;;;;;18.68;51.42;99475.28;5032401;28;20045;-75
2022/04/22 08:26:32;;;;;;;4.95;4.45;;;;;;;18.54;52.10;99479.38;5031973;28;20408;-74
2022/04/22 08:29:00;;;;;;;5.00;4.50;;;;;;;18.56;52.13;99485.44;5033026;28;20049;-73
2022/04/22 08:31:27;;;;;;;7.20;4.07;;;;;;;18.58;51.64;99483.41;5033507;28;20046;-73
2022/04/22 08:33:57;;;;;;;4.47;3.72;;;;;;;18.59;51.58;99478.88;5031551;28;20049;-73
2022/04/22 08:36:28;;;;;;;4.25;3.40;;;;;;;18.59;51.38;99474.38;5031659;28;20053;-73
2022/04/22 08:38:59;;;;;;;5.43;3.28;;;;;;;18.62;51.52;99473.22;5033189;28;20045;-75
2022/04/22 08:41:27;;;;;;;3.88;2.90;;;;;;;18.62;51.72;99484.78;5031361;28;20097;-75
2022/04/22 08:43:59;;;;;;;3.83;2.70;;;;;;;18.65;51.62;99480.94;5048890;28;20041;-74
2022/04/22 08:52:03;;;;;;;3.50;2.97;;;;;;;18.68;51.61;99486.00;5052625;28;20072;-74
2022/04/22 08:54:35;;;;;;;3.63;2.60;;;;;;;18.69;51.66;99493.03;5052706;28;20048;-74
2022/04/22 08:57:03;;;;;;;4.75;3.30;;;;;;;18.69;51.60;99485.00;5053084;28;20511;-74
2022/04/22 08:59:31;;;;;;;3.00;2.42;;;;;;;18.69;51.63;99491.19;5052805;28;20048;-75
2022/04/22 09:01:59;;;;;;;3.60;2.25;;;;;;;18.71;51.67;99496.41;5052540;28;20511;-76
2022/04/22 09:04:26;;;;;;;3.33;2.42;;;;;;;18.69;51.62;99496.56;5052718;28;20045;-73
2022/04/22 09:06:56;;;;;;;3.25;2.55;;;;;;;18.72;51.56;99500.78;5052688;28;20489;-75
2022/04/22 09:09:24;;;;;;;3.03;2.30;;;;;;;18.72;51.62;99501.63;5051420;28;20045;-75
2022/04/22 09:12:11;;;;;;;2.65;2.15;;;;;;;18.73;51.53;99507.84;5052664;28;20049;-75
2022/04/22 09:14:49;;;;;;;2.80;2.20;;;;;;;18.73;51.60;99513.19;5052732;28;20059;-73
2022/04/22 09:17:22;;;;;;;5.00;2.63;;;;;;;18.73;51.54;99508.66;5052684;28;20052;-72
2022/04/22 09:19:51;;;;;;;3.05;2.17;;;;;;;18.74;51.51;99506.81;5052500;28;20505;-73
2022/04/22 09:22:22;;;;;;;3.35;2.30;;;;;;;18.75;51.55;99506.66;5050775;28;20064;-73
2022/04/22 09:24:52;;;;;;;3.60;2.10;;;;;;;18.75;51.38;99511.16;5052492;28;20385;-73
2022/04/22 09:27:33;;;;;;;2.90;2.13;;;;;;;18.75;51.48;99516.53;5055742;28;20053;-74
2022/04/22 09:30:04;;;;;;;4.22;2.30;;;;;;;18.75;51.42;99516.53;5054926;28;20044;-74
2022/04/22 09:32:37;;;;;;;3.47;2.35;;;;;;;18.75;51.37;99517.38;5056483;28;20052;-74
2022/04/22 09:35:11;;;;;;;2.78;2.25;;;;;;;18.75;51.38;99520.06;5056365;28;20105;-75
2022/04/22 09:43:24;;;;;;;3.42;2.50;;;;;;;18.77;51.53;99526.13;5055725;28;20052;-75
2022/04/22 09:45:53;;;;;;;2.97;2.20;;;;;;;18.77;51.38;99526.13;5054707;28;20057;-76
2022/04/22 09:48:20;;;;;;;4.10;2.85;;;;;;;18.77;51.38;99523.44;5055602;28;20060;-76
2022/04/22 09:50:53;;;;;;;3.72;2.60;;;;;;;18.78;51.40;99530.47;5055498;28;20477;-75
2022/04/22 09:53:33;;;;;;;3.95;2.80;;;;;;;18.78;51.38;99533.16;5055491;28;20052;-75
2022/04/22 09:56:09;;;;;;;3.00;2.30;;;;;;;18.78;51.45;99533.16;5055971;28;20043;-75
2022/04/22 09:58:37;;;;;;;4.38;2.75;;;;;;;18.77;51.36;99536.84;5054784;28;20055;-73
2022/04/22 10:01:06;;;;;;;2.88;2.00;;;;;;;18.78;51.36;99538.50;5053876;28;20060;-75
2022/04/22 10:03:35;;;;;;;3.10;2.05;;;;;;;18.80;51.45;99537.50;5055146;28;20056;-72
2022/04/22 10:06:05;;;;;;;3.67;2.53;;;;;;;18.80;51.48;99537.50;5053918;28;20056;-73
2022/04/22 10:08:37;;;;;;;3.15;2.42;;;;;;;18.79;51.28;99533.97;5055436;28;20416;-74
2022/04/22 10:11:06;;;;;;;3.10;2.42;;;;;;;18.78;51.40;99533.16;5054479;28;20045;-73
2022/04/22 10:13:48;;;;;;;3.45;2.67;;;;;;;18.80;51.30;99542.88;5055180;28;20045;-73
2022/04/22 10:16:16;;;;;;;3.35;2.78;;;;;;;18.81;51.34;99536.53;5053850;28;20044;-75
2022/04/22 10:18:44;;;;;;;2.30;1.88;;;;;;;18.81;51.38;99541.88;5055159;28;20048;-72
2022/04/22 10:21:11;;;;;;;4.00;3.20;;;;;;;18.81;51.31;99541.88;5054663;28;20052;-72
2022/04/22 10:23:45;;;;;;;3.63;2.50;;;;;;;18.79;51.33;99544.72;5055142;28;20045;-72
2022/04/22 10:26:13;;;;;;;4.47;2.83;;;;;;;18.81;51.16;99552.63;5060158;28;20052;-73
2022/04/22 10:28:43;;;;;;;3.25;2.80;;;;;;;18.82;51.22;99551.59;5074891;28;20510;-72
2022/04/22 10:31:12;;;;;;;3.65;3.10;;;;;;;18.80;51.18;99551.78;5075359;28;20404;-71
2022/04/22 10:33:44;;;;;;;3.40;2.72;;;;;;;18.80;51.26;99556.28;5075503;28;20388;-72
2022/04/22 10:36:16;;;;;;;3.50;2.15;;;;;;;18.80;51.32;99551.78;5074296;28;20048;-72
2022/04/22 10:38:48;;;;;;;3.40;2.10;;;;;;;18.80;51.31;99554.47;5074951;28;20052;-72
2022/04/22 10:41:20;;;;;;;2.83;2.40;;;;;;;18.80;51.24;99546.41;5074757;28;20041;-72
2022/04/22 10:49:39;;;;;;;7.20;3.30;;;;;;;18.80;51.34;99554.47;5074428;28;20377;-72
2022/04/22 10:52:10;;;;;;;3.80;3.10;;;;;;;18.82;51.51;99557.81;5073479;28;20048;-72
2022/04/22 10:54:52;;;;;;;3.88;3.15;;;;;;;18.81;51.45;99557.97;5074887;28;20040;-73
2022/04/22 10:57:23;;;;;;;6.30;3.95;;;;;;;18.82;51.32;99565.00;5074631;28;20040;-73
2022/04/22 11:00:11;;;;;;;6.43;4.35;;;;;;;18.83;51.53;99564.84;5074491;28;20052;-73
2022/04/22 11:02:40;;;;;;;4.40;3.22;;;;;;;18.82;51.50;99568.53;5074658;28;20044;-72
2022/04/22 11:05:20;;;;;;;4.35;3.42;;;;;;;18.83;51.58;99569.38;5074228;28;20047;-72
2022/04/22 11:07:50;;;;;;;4.82;3.20;;;;;;;18.82;51.52;99565.84;5074086;28;20047;-74
2022/04/22 11:10:18;;;;;;;5.22;3.20;;;;;;;18.84;51.53;99571.03;5074657;28;20055;-73
2022/04/22 11:12:56;;;;;;;5.72;3.53;;;;;;;18.83;51.65;99572.88;5073987;28;20452;-74
2022/04/22 11:15:42;;;;;;;5.68;3.95;;;;;;;18.84;51.56;99571.91;5074015;28;20415;-72
2022/04/22 11:18:10;;;;;;;5.38;3.35;;;;;;;18.84;51.90;99579.94;5072514;28;20044;-72
2022/04/22 11:20:59;;;;;;;4.30;3.28;;;;;;;18.85;52.02;99584.31;5072568;28;20044;-72
2022/04/22 11:23:48;;;;;;;7.75;3.10;;;;;;;18.85;52.04;99583.47;5033719;28;20402;-72
2022/04/22 11:26:16;;;;;;;4.45;2.83;;;;;;;18.85;52.08;99580.78;5033667;28;20117;-72
2022/04/22 11:28:45;;;;;;;6.10;3.72;;;;;;;18.85;52.35;99587.00;5033403;28;20049;-72
2022/04/22 11:31:14;;;;;;;3.75;2.83;;;;;;;18.86;52.13;99579.78;5036810;28;20115;-72
2022/04/22 11:33:56;;;;;;;4.70;2.45;;;;;;;18.86;52.08;99582.47;5053134;28;20045;-73
2022/04/22 11:36:24;;;;;;;6.47;3.13;;;;;;;18.87;52.47;99594.88;5053164;28;20049;-72
2022/04/22 11:38:55;;;;;;;4.75;2.58;;;;;;;18.87;52.22;99590.34;5053056;28;20397;-74
2022/04/22 11:41:23;;;;;;;5.75;3.30;;;;;;;18.88;52.30;99601.91;5052447;28;20056;-72
2022/04/22 11:43:50;;;;;;;5.80;3.03;;;;;;;18.87;52.44;99597.53;5053529;28;20049;-72
2022/04/22 11:46:18;;;;;;;4.13;2.65;;;;;;;18.86;52.52;99604.75;5053646;28;20389;-72
2022/04/22 11:48:48;;;;;;;5.97;3.03;;;;;;;18.88;52.71;99604.59;5052775;28;20040;-72
2022/04/22 11:51:19;;;;;;;9.20;3.33;;;;;;;18.86;52.30;99606.59;5053405;28;20041;-73
2022/04/22 11:53:52;;;;;;;5.50;2.90;;;;;;;18.85;52.24;99602.25;5054091;28;20388;-75
2022/04/22 11:56:21;;;;;;;5.28;2.95;;;;;;;18.84;52.11;99605.91;5053381;28;20056;-73
2022/04/22 11:58:56;;;;;;;5.38;2.55;;;;;;;18.85;52.21;99612.97;5054190;28;20396;-75
2022/04/22 12:10:01;;;;;;;6.32;2.60;;;;;;;18.82;52.05;99624.84;5053102;28;20056;-72
2022/04/22 12:12:31;;;;;;;3.70;2.20;;;;;;;18.84;51.93;99630.03;5052508;28;20506;-72
2022/04/22 12:15:04;;;;;;;4.50;2.65;;;;;;;18.84;52.34;99621.97;5051447;28;20056;-72
2022/04/22 12:17:32;;;;;;;7.25;3.13;;;;;;;18.84;52.54;99619.31;5033669;28;20041;-72
2022/04/22 12:19:59;;;;;;;6.07;2.80;;;;;;;18.84;52.62;99630.91;5031962;28;20041;-71
2022/04/22 12:22:26;;;;;;;5.07;2.33;;;;;;;18.85;52.73;99626.38;5032385;28;20057;-71
2022/04/22 12:25:10;;;;;;;2.95;2.35;;;;;;;18.86;52.72;99633.41;5032897;28;20045;-72
2022/04/22 12:27:40;;;;;;;4.90;2.85;;;;;;;18.86;52.53;99639.59;5031663;28;20056;-72
2022/04/22 12:30:12;;;;;;;5.10;2.67;;;;;;;18.87;52.44;99641.28;5032294;28;20050;-74
2022/04/22 12:32:40;;;;;;;4.97;2.30;;;;;;;18.87;52.58;99638.59;5033170;28;20054;-74
2022/04/22 12:35:13;;;;;;;5.00;2.58;;;;;;;18.88;52.79;99645.69;5033199;28;20393;-72
2022/04/22 12:37:52;;;;;;;5.38;2.35;;;;;;;18.88;52.86;99643.00;5032971;28;20064;-72
2022/04/22 12:40:22;;;;;;;3.58;2.33;;;;;;;18.89;52.89;99646.50;5032610;28;20045;-72
2022/04/22 12:42:50;;;;;;;4.80;2.58;;;;;;;18.88;52.96;99644.81;5032633;28;20045;-72